Latest Coastal Weather Observations for Wyndham Airport

IDW60701

Issued at 3:02 pm WST Wednesday 4 March 2015 (issued every 10 minutes, with the page automatically refreshed every 10 minutes)

About coastal observations | Map of coastal stations | Coastal observations for WA | Marine services | Other Formats
Station Details ID: 001006 Name: WYNDHAM AERO Lat: -15.51 Lon: 128.15 Height: 3.8 m
Data from the previous 72 hours. | See also: Recent months for locations in Western Australia
Date/Time
WST
Temp

°C
Wind Pressure Rain
since 9am
mm
Weather Cloud Vis
km
Sea
Height
m
Swell
Dir
 
Speed
knots
Gust
knots
hPa Trend Height
m
Period
s
Dir
04/03:00pm 35.0 NE 9 15 1005.2 - 0.0 - - - - - - -
04/02:30pm 35.1 NE 11 15 1005.3 - 0.0 - - - - - - -
04/02:00pm 34.5 ENE 10 14 1005.5 - 0.0 - - - - - - -
04/01:30pm 35.0 NE 10 14 1005.6 - 0.0 - - - - - - -
04/01:00pm 34.7 NE 10 17 1006.0 - 0.0 - - - - - - -
04/12:30pm 34.7 NE 11 16 1006.4 - 0.0 - - - - - - -
04/12:00pm 35.2 ENE 10 14 1006.7 - 0.0 - - - - - - -
04/11:30am 33.9 NE 10 15 1007.1 - 0.0 - - - - - - -
04/11:00am 33.8 ENE 11 14 1007.6 - 0.0 - - - - - - -
04/10:30am 33.7 ENE 9 15 1007.9 - 0.0 - - - - - - -
04/10:00am 33.5 ENE 9 13 1008.1 - 0.0 - - - - - - -
04/09:30am 32.0 ENE 9 15 1008.1 - 0.0 - - - - - - -
04/09:00am 32.3 ENE 9 14 1008.1 - 0.0 - - - - - - -
04/08:30am 31.6 NE 8 13 1008.0 - 0.0 - - - - - - -
04/08:00am 31.0 ENE 8 11 1008.1 - 0.0 - - - - - - -
04/07:30am 30.3 ENE 6 9 1007.7 - 0.0 - - - - - - -
04/07:00am 29.6 ENE 7 11 1007.7 - 0.0 - - - - - - -
04/06:30am 28.6 E 6 7 1007.3 - 0.0 - - - - - - -
04/06:00am 27.8 E 2 5 1007.2 - 0.0 - - - - - - -
04/05:30am 27.2 ENE 1 3 1006.7 - 0.0 - - - - - - -
04/05:00am 27.1 E 5 6 1006.0 - 0.0 - - - - - - -
04/04:30am 27.4 ENE 5 5 1006.0 - 0.0 - - - - - - -
04/04:00am 27.3 ENE 5 5 1005.6 - 0.0 - - - - - - -
04/03:30am 27.6 ENE 3 4 1005.6 - 0.0 - - - - - - -
04/03:00am 27.6 CALM 0 0 1005.8 - 0.0 - - - - - - -
04/02:30am 27.6 CALM 0 0 1005.7 - 0.0 - - - - - - -
04/02:00am 27.7 CALM 0 0 1005.6 - 0.0 - - - - - - -
04/01:30am 28.1 CALM 0 0 1005.5 - 0.0 - - - - - - -
04/01:00am 28.5 CALM 0 0 1005.5 - 0.0 - - - - - - -
04/12:30am 28.6 CALM 0 0 1005.8 - 0.0 - - - - - - -
04/12:00am 28.6 SSW 3 5 1006.0 - 0.0 - - - - - - -
 
Date/Time
WST
Temp

°C
Wind Pressure Rain
since 9am
mm
Weather Cloud Vis
km
Sea
Height
m
Swell
Dir
 
Speed
knots
Gust
knots
hPa Trend Height
m
Period
s
Dir
03/11:30pm 28.5 ESE 1 5 1006.3 - 0.0 - - - - - - -
03/11:00pm 28.6 ESE 6 8 1006.3 - 0.0 - - - - - - -
03/10:30pm 28.7 ESE 7 8 1006.5 - 0.0 - - - - - - -
03/10:00pm 28.9 ESE 6 7 1006.6 - 0.0 - - - - - - -
03/09:30pm 28.9 SSE 6 8 1006.5 - 0.0 - - - - - - -
03/09:00pm 29.4 ESE 1 4 1006.1 - 0.0 - - - - - - -
03/08:30pm 29.6 NNW 4 7 1005.9 - 0.0 - - - - - - -
03/08:00pm 29.7 N 5 7 1005.4 - 0.0 - - - - - - -
03/07:30pm 29.9 CALM 0 0 1004.9 - 0.0 - - - - - - -
03/07:00pm 30.2 NW 3 4 1004.4 - 0.0 - - - - - - -
03/06:30pm 30.0 N 3 5 1004.2 - 0.0 - - - - - - -
03/06:00pm 30.6 N 5 7 1004.3 - 0.0 - - - - - - -
03/05:30pm 31.3 N 5 7 1004.1 - 0.0 - - - - - - -
03/05:00pm 31.9 NNW 9 11 1003.8 - 0.0 - - - - - - -
03/04:30pm 33.4 NNE 6 8 1003.4 - 0.0 - - - - - - -
03/04:00pm 33.8 ENE 8 10 1003.1 - 0.0 - - - - - - -
03/03:30pm 33.3 NNW 6 9 1003.2 - 0.0 - - - - - - -
03/03:00pm 33.7 ENE 8 11 1003.3 - 0.0 - - - - - - -
03/02:30pm 34.2 E 9 13 1003.5 - 0.0 - - - - - - -
03/02:00pm 33.7 E 9 13 1003.7 - 0.0 - - - - - - -
03/01:30pm 32.9 W 3 4 1004.2 - 0.0 - - - - - - -
03/01:00pm 31.8 SSE 2 4 1004.8 - 0.0 - - - - - - -
03/12:30pm 31.0 SSW 1 4 1005.4 - 0.0 - - - - - - -
03/12:00pm 30.7 SSW 2 4 1005.9 - 0.0 - - - - - - -
03/11:30am 29.7 SW 3 5 1006.3 - 0.0 - - - - - - -
03/11:00am 29.3 WSW 3 6 1006.5 - 0.0 - - - - - - -
03/10:30am 28.4 WSW 5 7 1006.7 - 0.0 - - - - - - -
03/10:00am 27.7 WSW 6 7 1007.0 - 0.0 - - - - - - -
03/09:30am 26.8 WSW 6 7 1007.5 - 0.0 - - - - - - -
03/09:00am 25.7 SW 9 12 1007.6 - 22.4 - - - - - - -
03/08:30am 24.9 SW 11 14 1007.8 - 22.4 - - - - - - -
03/08:00am 24.5 WNW 10 12 1008.0 - 22.4 - - - - - - -
03/07:30am 24.2 WNW 11 15 1008.3 - 22.4 - - - - - - -
03/07:00am 24.3 WNW 6 9 1007.9 - 22.4 - - - - - - -
03/06:30am 23.9 NE 11 21 1007.5 - 22.4 - - - - - - -
03/06:00am 23.3 NNW 10 14 1006.5 - 21.8 Recent precip. - - - - - -
03/05:30am 23.6 NW 9 13 1005.4 - 21.6 - - - - - - -
03/05:00am 24.5 WNW 10 13 1005.7 - 17.2 - - - - - - -
03/04:30am 24.0 NW 13 17 1005.6 - 16.2 - - - - - - -
03/04:25am 24.4 WNW 13 17 1005.5 - 16.0 - - - - - - -
03/04:00am 25.4 SSW 3 7 1004.9 - 14.8 - - - - - - -
03/03:30am 25.0 NW 4 6 1004.2 - 14.6 - - - - - - -
03/03:00am 24.8 ENE 10 23 1003.7 - 14.4 Rain - - - - - -
03/02:59am 24.8 ENE 11 30 1003.7 - 14.4 - - - - - - -
03/02:42am 24.6 NNE 13 31 1004.8 - 8.4 - - - - - - -
03/02:40am 26.0 NNE 10 23 1005.1 - 4.4 - - - - - - -
03/02:30am 27.3 NE 6 9 1003.8 - 3.2 - - - - - - -
03/02:00am 29.5 CALM 0 3 1003.5 - 0.4 - - - - - - -
03/01:30am 29.4 CALM 0 0 1003.6 - 0.4 - - - - - - -
03/01:00am 29.8 WSW 2 4 1003.9 - 0.2 - - - - - - -
03/12:30am 29.4 E 3 4 1004.4 - 0.2 - - - - - - -
03/12:00am 29.6 NNE 5 6 1004.5 - 0.0 - - - - - - -
 
Date/Time
WST
Temp

°C
Wind Pressure Rain
since 9am
mm
Weather Cloud Vis
km
Sea
Height
m
Swell
Dir
 
Speed
knots
Gust
knots
hPa Trend Height
m
Period
s
Dir
02/11:30pm 30.9 WSW 2 5 1003.7 - 0.0 - - - - - - -
02/11:00pm 31.1 CALM 0 0 1004.3 - 0.0 - - - - - - -
02/10:30pm 31.2 E 4 7 1005.0 - 0.0 - - - - - - -
02/10:00pm 31.6 SE 5 7 1005.5 - 0.0 - - - - - - -
02/09:30pm 31.6 NW 4 6 1005.3 - 0.0 - - - - - - -
02/09:00pm 32.1 NE 3 9 1005.3 - 0.0 - - - - - - -
02/08:30pm 32.0 NW 5 6 1005.0 - 0.0 - - - - - - -
02/08:00pm 32.1 NE 4 5 1004.4 - 0.0 - - - - - - -
02/07:30pm 32.3 SE 4 6 1003.9 - 0.0 - - - - - - -
02/07:00pm 32.4 E 2 5 1003.4 - 0.0 - - - - - - -
02/06:30pm 32.8 NE 4 5 1002.9 - 0.0 - - - - - - -
02/06:00pm 33.1 ENE 5 5 1002.4 - 0.0 - - - - - - -
02/05:30pm 33.6 NE 4 5 1002.0 - 0.0 - - - - - - -
02/05:00pm 34.2 NE 5 6 1001.5 - 0.0 - - - - - - -
02/04:30pm 34.8 NE 6 8 1001.7 - 0.0 - - - - - - -
02/04:00pm 35.5 ENE 5 7 1001.4 - 0.0 - - - - - - -
02/03:30pm 36.2 E 1 4 1001.2 - 0.0 - - - - - - -
02/03:00pm 36.7 SE 3 7 1001.5 - 0.0 - - - - - - -
02/02:30pm 36.6 SSE 6 8 1001.8 - 0.0 - - - - - - -
02/02:00pm 35.6 ESE 6 9 1002.3 - 0.0 - - - - - - -
02/01:30pm 35.7 ESE 6 10 1002.7 - 0.0 - - - - - - -
02/01:00pm 35.6 ESE 6 8 1003.1 - 0.0 - - - - - - -
02/12:30pm 34.9 ESE 4 7 1003.7 - 0.0 - - - - - - -
02/12:00pm 34.1 ESE 5 8 1004.2 - 0.0 - - - - - - -
02/11:30am 33.8 SE 7 11 1004.7 - 0.0 - - - - - - -
02/11:00am 33.2 SE 9 12 1005.2 - 0.0 - - - - - - -
02/10:30am 32.5 ESE 6 9 1005.6 - 0.0 - - - - - - -
02/10:00am 32.0 ESE 2 5 1006.0 - 0.0 - - - - - - -
02/09:30am 31.2 NNE 1 4 1006.3 - 0.0 - - - - - - -
02/09:00am 30.1 NNE 2 4 1006.2 - 4.4 - - - - - - -
02/08:30am 29.6 ENE 3 4 1006.1 - 4.4 - - - - - - -
02/08:00am 29.1 ESE 6 8 1006.0 - 4.4 - - - - - - -
02/07:30am 29.0 SSE 2 4 1006.2 - 4.4 - - - - - - -
02/07:00am 28.4 S 4 5 1006.2 - 4.4 - - - - - - -
02/06:30am 28.1 SW 7 9 1006.2 - 4.4 - - - - - - -
02/06:00am 28.1 SW 8 9 1005.9 - 4.4 - - - - - - -
02/05:30am 28.2 SSE 6 12 1006.1 - 4.4 - - - - - - -
02/05:00am 27.5 W 1 5 1005.6 - 4.4 - - - - - - -
02/04:30am 27.1 SSW 4 4 1005.4 - 4.4 - - - - - - -
02/04:00am 27.4 CALM 0 0 1004.9 - 4.4 - - - - - - -
02/03:30am 27.4 WSW 1 3 1004.8 - 4.4 - - - - - - -
02/03:00am 27.5 SSW 5 7 1004.8 - 4.4 - - - - - - -
02/02:30am 27.7 SW 8 10 1004.4 - 4.4 - - - - - - -
02/02:00am 28.1 W 5 8 1004.2 - 4.4 - - - - - - -
02/01:30am 28.1 WSW 5 8 1004.8 - 4.4 - - - - - - -
02/01:00am 28.3 WNW 6 7 1005.2 - 4.4 - - - - - - -
02/12:30am 27.9 WNW 5 7 1005.4 - 4.4 - - - - - - -
02/12:00am 28.1 NW 6 7 1005.4 - 4.4 - - - - - - -
 
Date/Time
WST
Temp

°C
Wind Pressure Rain
since 9am
mm
Weather Cloud Vis
km
Sea
Height
m
Swell
Dir
 
Speed
knots
Gust
knots
hPa Trend Height
m
Period
s
Dir
01/11:30pm 28.3 WNW 6 8 1005.5 - 4.4 - - - - - - -
01/11:00pm 28.1 WNW 6 7 1005.9 - 4.4 - - - - - - -
01/10:30pm 28.4 W 5 7 1006.5 - 4.4 - - - - - - -
01/10:00pm 28.4 W 4 5 1007.0 - 4.4 - - - - - - -
01/09:30pm 28.0 NW 4 5 1006.5 - 4.4 - - - - - - -
01/09:00pm 28.3 W 8 9 1006.5 - 4.4 - - - - - - -
01/08:30pm 27.5 NW 3 4 1006.6 - 4.4 - - - - - - -
01/08:00pm 27.6 NNW 5 9 1005.6 - 4.4 - - - - - - -
01/07:30pm 27.8 WSW 11 14 1004.6 - 4.4 - - - - - - -
01/07:00pm 27.0 N 9 11 1004.5 - 4.4 - - - - - - -
01/06:30pm 27.0 NE 8 12 1004.5 - 2.2 - - - - - - -
01/06:00pm 30.2 W 12 17 1004.2 - 0.0 - - - - - - -
01/05:30pm 31.3 SSW 19 29 1003.0 - 0.0 - - - - - - -
01/05:24pm 32.7 S 9 29 1002.8 - 0.0 - - - - - - -
01/05:00pm 35.3 NNW 5 8 1002.1 - 0.0 - - - - - - -
01/04:30pm 35.8 N 6 7 1001.6 - 0.0 - - - - - - -
01/04:00pm 36.4 NNW 5 6 1001.7 - 0.0 - - - - - - -
01/03:30pm 37.6 ENE 2 7 1001.4 - 0.0 - - - - - - -

Other Formats:

Comma delimited format used in spreadsheet applications
http://www.bom.gov.au/fwo/IDW60701/IDW60701.95214.axf

JavaScript Object Notation format (JSON) in row-major order
http://www.bom.gov.au/fwo/IDW60701/IDW60701.95214.json